Time;durP1;ratioP1;P1;durP2;ratioP2;P2;SDS_P1;SDS_P2;PMS_P1;PMS_P2;Temp;Humidity;BMP_temperature;BMP_pressure;BME280_temperature;BME280_humidity;BME280_pressure;Samples;Min_cycle;Max_cycle;Signal;HPM_P1;HPM_P2
2021/11/01 00:01:51;;;;;;;61.53;37.85;;;13.60;99.90;;;;;;5072339;28;20039;-74
2021/11/01 00:04:16;;;;;;;52.65;36.85;;;13.60;99.90;;;;;;5077887;28;20107;-74
2021/11/01 00:06:43;;;;;;;67.40;37.42;;;13.50;99.90;;;;;;5080970;28;20116;-74
2021/11/01 00:09:09;;;;;;;54.75;36.08;;;13.60;99.90;;;;;;5072961;28;20040;-74
2021/11/01 00:11:35;;;;;;;54.30;37.80;;;13.50;99.90;;;;;;5073690;28;20035;-74
2021/11/01 00:14:01;;;;;;;52.65;36.65;;;13.60;99.90;;;;;;5073590;28;20040;-74
2021/11/01 00:16:27;;;;;;;51.33;35.90;;;13.50;99.90;;;;;;5074722;28;20109;-74
2021/11/01 00:18:53;;;;;;;57.03;37.67;;;13.50;99.90;;;;;;5076113;28;20024;-74
2021/11/01 00:21:21;;;;;;;54.05;37.70;;;13.50;99.90;;;;;;5061086;28;20058;-74
2021/11/01 00:23:46;;;;;;;54.67;35.35;;;13.60;99.90;;;;;;5075990;28;20024;-74
2021/11/01 00:26:12;;;;;;;58.00;37.55;;;13.60;99.90;;;;;;5076743;28;20084;-73
2021/11/01 00:28:38;;;;;;;56.67;37.15;;;13.60;99.90;;;;;;5072055;28;20476;-74
2021/11/01 00:31:04;;;;;;;53.88;35.30;;;13.60;99.90;;;;;;5067798;28;20036;-74
2021/11/01 00:33:30;;;;;;;56.08;35.42;;;13.60;99.90;;;;;;5086319;28;20039;-74
2021/11/01 00:35:56;;;;;;;55.50;36.30;;;13.60;99.90;;;;;;5092892;28;20036;-74
2021/11/01 00:38:22;;;;;;;51.25;34.92;;;13.70;99.90;;;;;;5079330;28;20134;-74
2021/11/01 00:40:49;;;;;;;54.60;35.90;;;13.70;99.90;;;;;;5079970;28;20131;-73
2021/11/01 00:43:15;;;;;;;56.10;35.80;;;13.70;99.90;;;;;;5075396;28;20075;-74
2021/11/01 00:45:41;;;;;;;56.03;36.70;;;13.80;99.90;;;;;;5043544;28;20401;-74
2021/11/01 00:48:07;;;;;;;51.15;35.50;;;13.80;99.90;;;;;;5085288;28;20036;-74
2021/11/01 00:50:34;;;;;;;56.85;36.30;;;13.80;99.90;;;;;;5070569;28;20025;-73
2021/11/01 00:53:00;;;;;;;58.75;38.00;;;13.80;99.90;;;;;;5045684;28;20025;-74
2021/11/01 00:55:37;;;;;;;54.50;38.65;;;13.80;99.90;;;;;;5077707;28;20036;-74
2021/11/01 00:58:04;;;;;;;54.42;39.17;;;13.80;99.90;;;;;;5063503;28;20031;-74
2021/11/01 01:00:30;;;;;;;55.45;38.45;;;13.80;99.90;;;;;;5058918;28;20033;-75
2021/11/01 01:02:57;;;;;;;66.32;37.22;;;13.70;99.90;;;;;;5049749;28;20407;-74
2021/11/01 01:05:23;;;;;;;53.67;35.80;;;13.70;99.90;;;;;;5078457;28;20024;-75
2021/11/01 01:07:49;;;;;;;54.38;36.45;;;13.50;99.90;;;;;;5067089;28;20166;-74
2021/11/01 01:10:15;;;;;;;56.78;36.17;;;13.50;99.90;;;;;;5072641;28;20103;-74
2021/11/01 01:12:44;;;;;;;53.80;34.55;;;13.40;99.90;;;;;;5065421;28;20040;-73
2021/11/01 01:15:15;;;;;;;53.55;34.80;;;13.40;99.90;;;;;;5046550;28;20485;-74
2021/11/01 01:17:42;;;;;;;52.53;35.22;;;13.40;99.90;;;;;;5072201;28;20032;-74
2021/11/01 01:20:12;;;;;;;52.28;35.17;;;13.30;99.90;;;;;;5071618;28;20051;-74
2021/11/01 01:22:40;;;;;;;54.42;36.47;;;13.30;99.90;;;;;;5077617;28;20603;-74
2021/11/01 01:25:21;;;;;;;56.10;38.58;;;13.30;99.90;;;;;;5075739;28;20055;-73
2021/11/01 01:27:48;;;;;;;57.95;37.97;;;13.30;99.90;;;;;;5068721;28;20055;-74
2021/11/01 01:30:14;;;;;;;51.50;35.85;;;13.30;99.90;;;;;;5071978;28;20023;-74
2021/11/01 01:32:42;;;;;;;58.20;37.53;;;13.30;99.90;;;;;;5070092;28;20071;-74
2021/11/01 01:35:08;;;;;;;55.03;37.10;;;13.30;99.90;;;;;;5075120;28;20032;-74
2021/11/01 01:37:34;;;;;;;54.97;36.60;;;13.30;99.90;;;;;;5077016;28;20112;-73
2021/11/01 01:40:00;;;;;;;55.13;36.65;;;13.30;99.90;;;;;;5082174;28;20099;-74
2021/11/01 01:42:26;;;;;;;53.50;36.63;;;13.30;99.90;;;;;;5072458;28;20477;-74
2021/11/01 01:44:52;;;;;;;62.17;38.42;;;13.40;99.90;;;;;;5065841;28;20032;-73
2021/11/01 01:47:18;;;;;;;54.95;37.60;;;13.40;99.90;;;;;;5071536;28;20443;-74
2021/11/01 01:49:43;;;;;;;59.05;36.80;;;13.30;99.90;;;;;;5072227;28;20040;-74
2021/11/01 01:52:10;;;;;;;53.22;35.92;;;13.30;99.90;;;;;;5074475;28;20070;-73
2021/11/01 01:54:36;;;;;;;53.80;37.08;;;13.30;99.90;;;;;;5080205;28;20491;-73
2021/11/01 01:57:03;;;;;;;58.85;36.47;;;13.30;99.90;;;;;;5060422;28;20049;-73
2021/11/01 01:59:29;;;;;;;53.10;37.67;;;13.30;99.90;;;;;;5069689;28;20033;-74
2021/11/01 02:01:56;;;;;;;59.15;34.58;;;13.30;99.90;;;;;;5067504;28;20020;-74
2021/11/01 02:04:24;;;;;;;57.55;36.97;;;13.30;99.90;;;;;;5068487;28;20044;-74
2021/11/01 02:07:14;;;;;;;58.97;37.75;;;13.30;99.90;;;;;;5068836;28;20358;-74
2021/11/01 02:09:43;;;;;;;64.20;39.72;;;13.30;99.90;;;;;;5077843;28;20029;-74
2021/11/01 02:12:18;;;;;;;59.75;38.65;;;13.30;99.90;;;;;;5085303;28;20024;-74
2021/11/01 02:14:48;;;;;;;64.43;39.03;;;13.40;99.90;;;;;;5071699;28;20116;-74
2021/11/01 02:17:22;;;;;;;54.90;37.17;;;13.40;99.90;;;;;;5077115;28;20035;-74
2021/11/01 02:19:51;;;;;;;50.03;35.45;;;13.40;99.90;;;;;;5075829;28;20040;-73
2021/11/01 02:22:30;;;;;;;49.50;35.80;;;13.40;99.90;;;;;;5059866;28;20046;-73
2021/11/01 02:25:03;;;;;;;52.78;34.70;;;13.40;99.90;;;;;;5074982;28;20052;-73
2021/11/01 02:27:32;;;;;;;53.75;36.95;;;13.50;99.90;;;;;;5068155;28;20047;-74
2021/11/01 02:30:00;;;;;;;56.05;35.03;;;13.50;99.90;;;;;;5070416;28;20029;-74
2021/11/01 02:32:26;;;;;;;49.55;35.15;;;13.40;99.90;;;;;;5063968;28;20033;-74
2021/11/01 02:34:53;;;;;;;50.03;33.90;;;13.40;99.90;;;;;;5070652;28;20048;-74
2021/11/01 02:37:19;;;;;;;50.05;32.10;;;13.50;99.90;;;;;;5051422;28;20098;-74
2021/11/01 02:39:50;;;;;;;46.38;32.72;;;13.40;99.90;;;;;;5071302;28;20423;-73
2021/11/01 02:42:16;;;;;;;48.95;32.00;;;13.20;99.90;;;;;;5052879;28;20040;-74
2021/11/01 02:44:57;;;;;;;56.75;33.28;;;13.20;99.90;;;;;;5056638;28;20481;-74
2021/11/01 02:47:25;;;;;;;49.47;32.08;;;13.10;99.90;;;;;;5064213;28;20056;-74
2021/11/01 02:49:51;;;;;;;46.97;31.33;;;13.10;99.90;;;;;;5066618;28;20081;-73
2021/11/01 02:52:18;;;;;;;51.35;33.33;;;13.10;99.90;;;;;;5064886;28;20065;-73
2021/11/01 02:54:44;;;;;;;45.05;31.02;;;13.10;99.90;;;;;;5071143;28;20024;-74
2021/11/01 02:57:10;;;;;;;44.35;30.95;;;13.00;99.90;;;;;;5049505;28;20028;-73
2021/11/01 02:59:36;;;;;;;44.10;31.30;;;13.10;99.90;;;;;;5068713;28;20082;-75
2021/11/01 03:02:02;;;;;;;50.00;31.25;;;13.10;99.90;;;;;;5078518;28;20021;-74
2021/11/01 03:04:28;;;;;;;48.22;32.10;;;13.10;99.90;;;;;;5059612;28;20036;-73
2021/11/01 03:06:56;;;;;;;48.08;31.35;;;13.10;99.90;;;;;;5085276;28;20051;-74
2021/11/01 03:09:22;;;;;;;48.67;32.20;;;13.10;99.90;;;;;;5083940;28;20090;-74
2021/11/01 03:11:48;;;;;;;43.75;31.30;;;13.10;99.90;;;;;;5088377;28;20028;-74
2021/11/01 03:14:21;;;;;;;46.58;31.60;;;13.10;99.90;;;;;;5076211;28;20158;-73
2021/11/01 03:16:48;;;;;;;50.80;33.55;;;13.10;99.90;;;;;;5073685;28;20125;-74
2021/11/01 03:19:19;;;;;;;45.67;30.60;;;13.10;99.90;;;;;;5078478;28;20107;-74
2021/11/01 03:21:47;;;;;;;50.30;31.38;;;13.00;99.90;;;;;;5072533;28;20052;-74
2021/11/01 03:24:15;;;;;;;46.92;31.67;;;13.00;99.90;;;;;;5089686;28;20031;-74
2021/11/01 03:26:43;;;;;;;43.83;32.13;;;13.00;99.90;;;;;;5082385;28;20383;-74
2021/11/01 03:29:10;;;;;;;47.58;31.98;;;13.00;99.90;;;;;;5093006;28;20062;-74
2021/11/01 03:31:38;;;;;;;44.80;31.45;;;13.00;99.90;;;;;;5085807;28;20094;-74
2021/11/01 03:34:04;;;;;;;49.53;30.88;;;13.00;99.90;;;;;;5095751;28;20028;-73
2021/11/01 03:36:32;;;;;;;38.40;28.48;;;13.10;99.90;;;;;;5092972;28;20024;-75
2021/11/01 03:38:58;;;;;;;44.58;28.75;;;13.10;99.90;;;;;;5095624;28;20024;-74
2021/11/01 03:41:27;;;;;;;43.03;29.48;;;13.10;99.90;;;;;;5088844;28;20033;-74
2021/11/01 03:44:02;;;;;;;50.28;30.40;;;13.10;99.90;;;;;;5088877;28;20036;-73
2021/11/01 03:46:39;;;;;;;45.05;28.75;;;13.20;99.90;;;;;;5075925;28;20037;-73
2021/11/01 03:49:08;;;;;;;39.10;28.38;;;13.10;99.90;;;;;;5094529;28;20055;-74
2021/11/01 03:52:08;;;;;;;45.60;31.17;;;13.10;99.90;;;;;;5094930;28;20107;-74
2021/11/01 03:54:34;;;;;;;43.22;30.13;;;13.10;99.90;;;;;;5095510;28;20055;-74
2021/11/01 03:57:00;;;;;;;46.60;29.17;;;13.20;99.90;;;;;;5094966;28;20024;-74
2021/11/01 03:59:27;;;;;;;43.25;28.70;;;13.20;99.90;;;;;;5095133;28;20032;-74
2021/11/01 04:01:53;;;;;;;41.95;28.48;;;13.20;99.90;;;;;;5071220;28;20041;-74
2021/11/01 04:04:19;;;;;;;37.45;27.70;;;13.20;99.90;;;;;;5092091;28;20032;-74
2021/11/01 04:06:45;;;;;;;42.05;27.58;;;13.20;99.90;;;;;;5080937;28;20040;-74
2021/11/01 04:09:13;;;;;;;36.42;26.33;;;13.30;99.90;;;;;;5080412;28;20020;-74
2021/11/01 04:11:43;;;;;;;43.10;27.75;;;13.30;99.90;;;;;;5077592;28;20025;-74
2021/11/01 04:14:17;;;;;;;36.90;26.38;;;13.30;99.90;;;;;;5077832;28;20035;-74
2021/11/01 04:16:47;;;;;;;37.15;26.60;;;13.40;99.90;;;;;;5094621;28;20040;-74
2021/11/01 04:21:46;;;;;;;43.50;27.05;;;13.40;99.90;;;;;;5082471;28;20753;-74
2021/11/01 04:24:13;;;;;;;37.65;27.85;;;13.50;99.90;;;;;;5065889;28;20028;-74
2021/11/01 04:26:39;;;;;;;36.35;26.83;;;13.50;99.90;;;;;;5082965;28;20028;-74
2021/11/01 04:29:07;;;;;;;39.78;27.75;;;13.50;99.90;;;;;;5091795;28;20369;-74
2021/11/01 04:31:37;;;;;;;38.95;27.20;;;13.50;99.90;;;;;;5093896;28;20526;-74
2021/11/01 04:34:51;;;;;;;37.60;27.23;;;13.50;99.90;;;;;;5069773;28;20045;-74
2021/11/01 04:36:52;;;;;;;39.17;26.38;;;13.50;99.90;;;;;;5060148;28;20528;-73
2021/11/01 04:55:22;;;;;;;45.05;30.75;;;13.70;99.90;;;;;;5065663;28;20040;-74
2021/11/01 04:57:48;;;;;;;42.58;29.02;;;13.70;99.90;;;;;;5073790;28;20021;-74
2021/11/01 05:00:15;;;;;;;50.35;30.27;;;13.80;99.90;;;;;;5092747;28;20032;-74
2021/11/01 05:02:45;;;;;;;43.97;27.95;;;13.80;99.90;;;;;;5093803;28;20111;-74
2021/11/01 05:05:12;;;;;;;48.28;30.70;;;13.80;99.90;;;;;;5069637;28;20036;-74
2021/11/01 05:07:38;;;;;;;43.03;31.35;;;13.80;99.90;;;;;;5073096;28;20040;-74
2021/11/01 05:10:25;;;;;;;55.30;33.35;;;13.80;99.90;;;;;;5073402;28;20436;-74
2021/11/01 05:12:51;;;;;;;47.92;34.22;;;13.90;99.90;;;;;;5072960;28;20040;-74
2021/11/01 05:35:51;;;;;;;44.40;30.52;;;13.90;99.90;;;;;;5092827;28;20036;-74
2021/11/01 05:38:17;;;;;;;42.00;28.58;;;13.90;99.90;;;;;;5076246;28;20039;-74
2021/11/01 05:40:43;;;;;;;48.70;30.30;;;14.00;99.90;;;;;;5083550;28;20029;-74
2021/11/01 05:43:08;;;;;;;49.78;30.75;;;14.10;99.90;;;;;;5078443;28;20486;-73
2021/11/01 05:45:34;;;;;;;45.42;31.38;;;14.10;99.90;;;;;;5062452;28;20032;-74
2021/11/01 05:48:03;;;;;;;49.15;32.00;;;14.10;99.90;;;;;;5067869;28;20041;-74
2021/11/01 05:50:32;;;;;;;46.42;30.10;;;14.10;99.90;;;;;;5070359;28;20028;-73
2021/11/01 05:52:59;;;;;;;43.58;30.25;;;14.10;99.90;;;;;;5071676;28;20036;-75
2021/11/01 06:03:36;;;;;;;41.00;28.15;;;14.10;99.90;;;;;;5072460;28;20039;-74
2021/11/01 06:06:22;;;;;;;40.78;28.13;;;14.10;99.90;;;;;;5072725;28;20178;-73
2021/11/01 06:13:56;;;;;;;40.65;29.20;;;14.20;99.90;;;;;;5072100;28;20362;-74
2021/11/01 06:16:22;;;;;;;43.75;29.15;;;14.20;99.90;;;;;;5063197;28;20036;-74
2021/11/01 06:18:49;;;;;;;41.42;29.10;;;14.20;99.90;;;;;;5069413;28;20033;-74
2021/11/01 06:21:16;;;;;;;45.40;28.02;;;14.20;99.90;;;;;;5064451;28;20503;-74
2021/11/01 06:23:50;;;;;;;42.30;29.63;;;14.30;99.90;;;;;;5084922;28;20496;-74
2021/11/01 06:26:17;;;;;;;45.00;30.70;;;14.30;99.90;;;;;;5074083;28;20043;-74
2021/11/01 06:28:44;;;;;;;38.45;29.15;;;14.30;99.90;;;;;;5092289;28;20075;-74
2021/11/01 06:31:13;;;;;;;44.83;28.15;;;14.30;99.90;;;;;;5092234;28;20074;-74
2021/11/01 06:34:01;;;;;;;47.35;29.65;;;14.30;99.90;;;;;;5092314;28;20028;-75
2021/11/01 06:42:12;;;;;;;46.40;30.38;;;14.30;99.90;;;;;;5088537;28;20032;-74
2021/11/01 06:44:48;;;;;;;54.47;33.55;;;14.30;99.90;;;;;;5092400;28;20028;-74
2021/11/01 07:16:47;;;;;;;42.20;27.98;;;14.00;99.90;;;;;;5075330;28;20492;-73
2021/11/01 07:19:45;;;;;;;37.95;26.77;;;14.10;99.90;;;;;;5066702;28;20477;-74
2021/11/01 09:26:03;;;;;;;42.58;29.00;;;15.30;99.90;;;;;;5071040;28;20063;-75
2021/11/01 09:28:39;;;;;;;48.83;32.38;;;15.30;99.90;;;;;;5072371;28;20032;-75
2021/11/01 09:39:00;;;;;;;32.35;22.42;;;15.30;99.90;;;;;;5063510;28;20052;-76
2021/11/01 09:41:27;;;;;;;38.33;27.92;;;15.30;99.90;;;;;;5069860;28;20024;-75
2021/11/01 09:43:57;;;;;;;42.55;27.65;;;15.30;99.90;;;;;;5062833;28;20120;-74
2021/11/01 09:46:25;;;;;;;38.72;27.00;;;15.40;99.90;;;;;;5071623;28;20399;-74
2021/11/01 09:49:02;;;;;;;38.20;27.02;;;15.40;99.90;;;;;;5069411;28;20135;-75
2021/11/01 09:51:28;;;;;;;40.72;27.40;;;15.50;99.90;;;;;;5067486;28;20041;-73
2021/11/01 09:53:55;;;;;;;37.47;27.02;;;15.50;99.90;;;;;;5055027;28;20487;-74
2021/11/01 09:59:11;;;;;;;37.88;28.25;;;15.50;99.90;;;;;;5072151;28;20431;-74
2021/11/01 10:01:39;;;;;;;38.75;26.60;;;15.50;99.90;;;;;;5069011;28;20075;-74
2021/11/01 10:04:17;;;;;;;41.67;27.70;;;15.50;99.90;;;;;;5058505;28;20489;-73
2021/11/01 10:06:49;;;;;;;36.97;25.20;;;15.50;99.90;;;;;;5038871;28;20091;-73
2021/11/01 10:09:14;;;;;;;41.97;26.58;;;15.50;99.90;;;;;;5069703;28;20047;-73
2021/11/01 10:11:44;;;;;;;41.47;26.00;;;15.50;99.90;;;;;;5035889;28;20489;-74
2021/11/01 10:14:13;;;;;;;39.63;26.35;;;15.50;99.90;;;;;;5054523;28;20074;-76
2021/11/01 10:19:32;;;;;;;34.42;23.88;;;15.40;99.90;;;;;;5061657;28;20048;-75
2021/11/01 10:22:07;;;;;;;37.95;26.83;;;15.30;99.90;;;;;;5071240;28;20079;-74
2021/11/01 10:24:39;;;;;;;51.60;34.03;;;15.30;99.90;;;;;;5073002;28;20136;-73
2021/11/01 10:27:10;;;;;;;46.05;29.48;;;15.30;99.90;;;;;;5063480;28;20032;-74
2021/11/01 10:30:10;;;;;;;39.60;26.42;;;15.30;99.90;;;;;;5063363;28;20025;-73
2021/11/01 10:32:45;;;;;;;61.47;48.30;;;15.20;99.90;;;;;;5046890;28;20032;-74
2021/11/01 10:35:23;;;;;;;41.08;29.80;;;15.20;99.90;;;;;;5060152;28;20709;-73
2021/11/01 10:38:17;;;;;;;47.75;33.00;;;15.20;99.90;;;;;;5045557;28;20056;-73
2021/11/01 11:49:26;;;;;;;53.50;34.22;;;14.90;99.90;;;;;;5063393;28;20531;-74
2021/11/01 11:51:56;;;;;;;57.97;35.97;;;14.90;99.90;;;;;;5069975;28;20059;-72
2021/11/01 11:54:46;;;;;;;54.60;36.45;;;14.90;99.90;;;;;;5078256;28;20102;-74
2021/11/01 11:57:30;;;;;;;47.97;35.38;;;14.80;99.90;;;;;;5073273;28;20020;-73
2021/11/01 11:59:58;;;;;;;51.63;36.75;;;14.80;99.90;;;;;;5079608;28;20024;-73
2021/11/01 12:02:39;;;;;;;62.28;40.75;;;14.80;99.90;;;;;;5074654;28;20063;-73
2021/11/01 12:05:11;;;;;;;78.63;48.47;;;14.80;99.90;;;;;;5071949;28;20025;-73
2021/11/01 12:07:51;;;;;;;69.07;45.25;;;14.80;99.90;;;;;;5068348;28;20044;-73
2021/11/01 12:11:06;;;;;;;51.13;37.67;;;14.80;99.90;;;;;;5064136;28;20525;-73
2021/11/01 12:18:36;;;;;;;48.00;35.05;;;14.80;99.90;;;;;;5074142;28;20050;-75
2021/11/01 12:21:02;;;;;;;58.50;37.40;;;14.80;99.90;;;;;;5073538;28;20040;-75
2021/11/01 12:23:40;;;;;;;127.68;77.03;;;14.80;99.90;;;;;;5065774;28;20064;-74
2021/11/01 12:26:17;;;;;;;380.20;209.30;;;14.90;99.90;;;;;;5090896;28;20112;-74
2021/11/01 12:28:50;;;;;;;160.88;91.45;;;14.90;99.90;;;;;;5064390;28;20464;-75
2021/11/01 12:31:16;;;;;;;198.30;117.68;;;14.80;99.90;;;;;;5053254;28;20035;-75
2021/11/01 12:36:38;;;;;;;173.73;101.03;;;14.80;99.90;;;;;;5068316;28;20040;-74
2021/11/01 12:39:22;;;;;;;125.88;76.90;;;14.70;99.90;;;;;;5070805;28;20078;-74
2021/11/01 12:42:20;;;;;;;144.73;91.30;;;14.70;99.90;;;;;;5058543;28;20489;-73
2021/11/01 12:58:25;;;;;;;95.50;59.95;;;14.50;99.90;;;;;;5080151;28;20447;-73
2021/11/01 13:00:51;;;;;;;120.20;74.57;;;14.60;99.90;;;;;;5075607;28;20032;-73
2021/11/01 13:03:21;;;;;;;44.00;30.60;;;14.60;99.90;;;;;;5093904;28;20114;-74
2021/11/01 13:05:54;;;;;;;58.03;34.90;;;14.60;99.90;;;;;;5092992;28;20384;-73
2021/11/01 13:08:33;;;;;;;52.97;35.90;;;14.60;99.90;;;;;;5093254;28;20036;-73
2021/11/01 13:11:30;;;;;;;45.28;31.20;;;14.70;99.90;;;;;;5092806;28;20028;-73
2021/11/01 13:19:27;;;;;;;45.70;28.33;;;14.70;99.90;;;;;;5072321;28;20093;-73
2021/11/01 13:22:11;;;;;;;37.28;24.67;;;14.70;99.90;;;;;;5076626;28;20500;-73
2021/11/01 13:25:12;;;;;;;40.30;26.98;;;14.70;99.90;;;;;;5092837;28;20039;-73
2021/11/01 13:36:25;;;;;;;47.55;29.98;;;14.90;99.90;;;;;;5092535;28;20043;-73
2021/11/01 13:38:56;;;;;;;24.58;18.38;;;15.00;99.90;;;;;;5070532;28;20109;-73
2021/11/01 13:41:28;;;;;;;38.20;27.77;;;15.00;99.90;;;;;;5064717;28;20037;-76
2021/11/01 13:44:09;;;;;;;35.10;23.92;;;15.00;99.90;;;;;;5068144;28;20059;-74
2021/11/01 13:46:43;;;;;;;34.90;24.27;;;15.10;99.90;;;;;;5063744;28;20428;-75
2021/11/01 13:49:09;;;;;;;33.55;21.95;;;15.10;99.90;;;;;;5071354;28;20040;-74
2021/11/01 13:51:35;;;;;;;37.80;24.38;;;15.10;99.90;;;;;;5072709;28;20040;-75
2021/11/01 13:56:49;;;;;;;30.63;20.90;;;15.20;99.90;;;;;;5070896;28;20036;-74
2021/11/01 13:59:36;;;;;;;31.30;20.33;;;15.30;99.90;;;;;;5063478;28;20124;-75
2021/11/01 14:31:52;;;;;;;32.65;20.25;;;15.50;99.90;;;;;;5091136;28;20035;-74
2021/11/01 14:34:55;;;;;;;35.20;19.70;;;15.50;99.90;;;;;;5079834;28;20326;-75
2021/11/01 14:59:36;;;;;;;35.80;19.65;;;15.80;99.90;;;;;;5066877;28;20520;-74
2021/11/01 15:10:53;;;;;;;30.65;16.38;;;16.00;99.90;;;;;;5069742;28;20051;-74
2021/11/01 15:16:21;;;;;;;29.80;17.38;;;15.90;99.90;;;;;;5071143;28;20540;-74
2021/11/01 15:26:59;;;;;;;33.47;15.88;;;15.90;99.90;;;;;;5058267;28;20716;-74
2021/11/01 15:32:42;;;;;;;27.10;17.17;;;15.90;99.90;;;;;;5073737;28;20417;-74
2021/11/01 16:18:29;;;;;;;30.05;14.02;;;16.40;99.90;;;;;;5075681;28;20048;-73
2021/11/01 16:20:55;;;;;;;33.70;19.70;;;16.50;99.90;;;;;;5063706;28;20049;-74
2021/11/01 16:23:37;;;;;;;26.73;15.20;;;16.50;99.90;;;;;;5079269;28;20127;-73
2021/11/01 16:26:13;;;;;;;;;;;16.50;99.90;;;;;;5072674;28;20025;-73
2021/11/01 16:28:39;;;;;;;57.17;29.60;;;16.50;99.90;;;;;;5093406;28;20041;-73
2021/11/01 16:33:59;;;;;;;32.97;19.02;;;16.50;99.90;;;;;;5073627;28;20043;-73
2021/11/01 16:39:28;;;;;;;19.48;11.43;;;16.70;99.90;;;;;;5066184;28;20097;-74
2021/11/01 16:41:54;;;;;;;30.27;11.48;;;16.70;99.90;;;;;;5068832;28;20098;-74
2021/11/01 16:44:28;;;;;;;28.80;14.18;;;16.80;99.90;;;;;;5066805;28;20043;-73
2021/11/01 16:46:55;;;;;;;35.97;17.48;;;16.80;99.90;;;;;;5071213;28;20116;-74
2021/11/01 16:49:22;;;;;;;35.97;19.13;;;16.80;99.90;;;;;;5055648;28;20064;-73
2021/11/01 16:51:49;;;;;;;24.98;14.65;;;16.70;99.90;;;;;;5046222;28;20543;-73
2021/11/01 16:54:21;;;;;;;22.23;13.05;;;16.70;99.90;;;;;;5064184;28;20481;-74
2021/11/01 17:02:18;;;;;;;20.23;12.57;;;16.60;99.90;;;;;;5035141;28;20068;-74
2021/11/01 17:04:58;;;;;;;31.45;16.63;;;16.60;99.90;;;;;;5064774;28;20032;-74
2021/11/01 17:24:08;;;;;;;24.15;11.40;;;16.60;99.90;;;;;;5009062;28;20049;-74
2021/11/01 18:52:09;;;;;;;17.00;13.15;;;15.00;99.90;;;;;;5095949;28;20040;-75
2021/11/01 18:54:38;;;;;;;22.55;16.98;;;15.00;99.90;;;;;;5064795;28;20058;-74
2021/11/01 18:57:05;;;;;;;13.27;10.57;;;15.00;99.90;;;;;;5088384;28;20213;-75
2021/11/01 18:59:37;;;;;;;15.35;10.23;;;15.00;99.90;;;;;;5080513;28;20089;-73
2021/11/01 19:04:48;;;;;;;14.30;10.65;;;15.00;99.90;;;;;;5065661;28;20053;-74
2021/11/01 19:07:28;;;;;;;16.00;9.65;;;15.00;99.90;;;;;;5074388;28;20028;-75
2021/11/01 20:05:38;;;;;;;10.23;6.50;;;15.20;99.90;;;;;;5067128;28;20102;-74
2021/11/01 21:25:47;;;;;;;17.02;11.02;;;13.90;99.90;;;;;;5073680;28;20039;-74
2021/11/01 21:28:13;;;;;;;18.15;10.30;;;13.90;99.90;;;;;;5092619;28;20096;-75
2021/11/01 21:30:38;;;;;;;14.57;8.80;;;13.90;99.90;;;;;;5090770;28;20036;-76
2021/11/01 21:33:04;;;;;;;10.02;7.13;;;13.90;99.90;;;;;;5059707;28;20123;-74
2021/11/01 21:35:31;;;;;;;10.95;7.10;;;14.00;99.90;;;;;;5077632;28;20376;-73
2021/11/01 21:37:59;;;;;;;14.85;7.13;;;14.10;99.90;;;;;;5073939;28;20066;-74
2021/11/01 21:40:25;;;;;;;15.57;7.05;;;14.20;99.90;;;;;;5073216;28;20111;-75
2021/11/01 21:42:52;;;;;;;13.27;5.45;;;14.20;99.90;;;;;;5079922;28;20020;-73
2021/11/01 21:45:18;;;;;;;11.55;7.40;;;14.50;99.90;;;;;;5074883;28;20032;-73
2021/11/01 21:47:44;;;;;;;12.63;8.15;;;14.50;99.90;;;;;;5093033;28;20558;-72
2021/11/01 21:50:10;;;;;;;12.30;7.78;;;14.60;99.90;;;;;;5087763;28;20453;-71
2021/11/01 21:52:36;;;;;;;8.20;6.30;;;14.70;99.90;;;;;;5089538;28;20518;-71
2021/11/01 21:55:05;;;;;;;6.97;6.15;;;14.80;99.90;;;;;;5093042;28;20036;-72
2021/11/01 21:57:42;;;;;;;6.50;5.55;;;14.90;99.90;;;;;;5092999;28;20117;-72
2021/11/01 22:16:46;;;;;;;5.30;3.90;;;15.10;99.90;;;;;;5076731;28;20043;-72
2021/11/01 22:22:32;;;;;;;6.38;3.83;;;15.30;99.90;;;;;;5086058;28;20408;-71
2021/11/01 22:41:16;;;;;;;4.55;3.03;;;15.50;99.90;;;;;;5068028;28;20106;-71
2021/11/01 22:57:24;;;;;;;3.58;2.80;;;15.40;99.90;;;;;;5070888;28;20397;-71
2021/11/01 22:59:50;;;;;;;4.55;2.90;;;15.50;99.90;;;;;;5068804;28;20037;-70
2021/11/01 23:02:15;;;;;;;3.63;2.88;;;15.50;99.90;;;;;;5070765;28;20112;-70
2021/11/01 23:31:49;;;;;;;3.60;3.00;;;15.00;99.90;;;;;;5091986;28;20067;-71
2021/11/01 23:34:16;;;;;;;8.40;3.33;;;15.00;99.90;;;;;;5091901;28;20064;-71
2021/11/01 23:36:43;;;;;;;9.38;2.83;;;14.90;99.90;;;;;;5084068;28;20029;-72
2021/11/01 23:39:11;;;;;;;11.77;4.43;;;14.90;99.90;;;;;;5083714;28;20028;-72
2021/11/01 23:41:39;;;;;;;9.20;3.22;;;14.90;99.90;;;;;;5074781;28;20079;-72
2021/11/01 23:44:06;;;;;;;13.90;4.13;;;14.90;99.90;;;;;;5083807;28;20522;-72
2021/11/01 23:46:32;;;;;;;21.00;5.05;;;14.90;99.90;;;;;;5095433;28;20396;-72
2021/11/01 23:48:58;;;;;;;17.50;4.70;;;14.90;99.90;;;;;;5095254;28;20050;-71
2021/11/01 23:51:31;;;;;;;25.98;8.70;;;14.90;99.90;;;;;;5093773;28;20039;-72
2021/11/01 23:56:35;;;;;;;35.50;12.18;;;14.80;99.90;;;;;;5095309;28;20111;-72
2021/11/01 23:59:01;;;;;;;27.23;12.85;;;14.70;99.90;;;;;;5088520;28;20358;-72
